createdAt,value
2023-03-28T00:01:07.834Z,104.20
2023-03-28T00:03:39.357Z,103.30
2023-03-28T00:06:11.281Z,104.17
2023-03-28T00:08:40.943Z,101.53
2023-03-28T00:11:11.460Z,101.20
2023-03-28T00:13:41.053Z,101.07
2023-03-28T00:16:12.554Z,98.80
2023-03-28T00:18:42.720Z,102.07
2023-03-28T00:21:23.318Z,100.47
2023-03-28T00:23:53.872Z,99.97
2023-03-28T00:26:24.737Z,97.77
2023-03-28T00:28:54.742Z,98.43
2023-03-28T00:31:23.277Z,97.60
2023-03-28T00:33:51.568Z,98.13
2023-03-28T00:36:22.942Z,96.23
2023-03-28T00:38:52.373Z,94.33
2023-03-28T00:41:21.926Z,100.50
2023-03-28T00:43:52.680Z,96.10
2023-03-28T00:46:26.388Z,97.90
2023-03-28T00:48:57.500Z,97.23
2023-03-28T00:51:31.312Z,98.13
2023-03-28T00:54:01.985Z,98.50
2023-03-28T00:56:34.818Z,99.80
2023-03-28T00:59:08.001Z,97.40
2023-03-28T01:01:37.667Z,97.90
2023-03-28T01:04:06.897Z,95.73
2023-03-28T01:06:38.144Z,95.30
2023-03-28T01:09:09.183Z,97.03
2023-03-28T01:11:39.651Z,95.30
2023-03-28T01:14:13.236Z,93.90
2023-03-28T01:16:43.178Z,96.67
2023-03-28T01:19:22.054Z,95.97
2023-03-28T01:22:26.947Z,95.07
2023-03-28T01:25:20.450Z,92.73
2023-03-28T01:27:53.292Z,91.67
2023-03-28T01:30:47.555Z,92.97
2023-03-28T01:33:39.642Z,95.50
2023-03-28T01:36:49.422Z,95.83
2023-03-28T01:39:29.985Z,95.23
2023-03-28T01:42:03.595Z,92.60
2023-03-28T01:44:38.052Z,92.87
2023-03-28T01:47:12.753Z,89.77
2023-03-28T01:49:48.443Z,90.77
2023-03-28T01:52:22.948Z,89.57
2023-03-28T01:54:58.323Z,89.70
2023-03-28T01:57:30.803Z,90.30
2023-03-28T02:00:11.550Z,87.50
2023-03-28T02:02:44.770Z,88.50
2023-03-28T02:05:15.829Z,84.67
2023-03-28T02:07:48.274Z,82.13
2023-03-28T02:10:19.226Z,79.33
2023-03-28T02:12:50.146Z,80.80
2023-03-28T02:15:21.716Z,81.80
2023-03-28T02:17:55.567Z,82.37
2023-03-28T02:20:28.672Z,80.80
2023-03-28T02:23:01.974Z,80.40
2023-03-28T02:25:31.867Z,79.87
2023-03-28T02:28:03.548Z,78.80
2023-03-28T02:30:31.939Z,76.70
2023-03-28T02:33:01.398Z,76.10
2023-03-28T02:35:34.297Z,77.53
2023-03-28T02:38:13.467Z,75.50
2023-03-28T02:40:52.092Z,77.30
2023-03-28T02:43:32.482Z,76.90
2023-03-28T02:46:14.081Z,77.43
2023-03-28T02:48:56.628Z,76.57
2023-03-28T02:51:34.761Z,79.13
2023-03-28T02:54:21.969Z,83.10
2023-03-28T02:57:01.538Z,84.97
2023-03-28T02:59:34.785Z,86.80
2023-03-28T03:02:04.825Z,86.37
2023-03-28T03:04:33.097Z,86.13
2023-03-28T03:07:02.648Z,87.43
2023-03-28T03:09:33.242Z,88.33
2023-03-28T03:12:01.620Z,89.97
2023-03-28T03:14:29.786Z,89.83
2023-03-28T03:16:57.965Z,91.30
2023-03-28T03:19:26.391Z,93.17
2023-03-28T03:21:55.356Z,95.50
2023-03-28T03:24:25.050Z,93.90
2023-03-28T03:26:54.577Z,92.50
2023-03-28T03:29:22.790Z,93.27
2023-03-28T03:31:51.114Z,92.37
2023-03-28T03:34:19.491Z,94.37
2023-03-28T03:36:50.016Z,93.37
2023-03-28T03:39:18.461Z,90.40
2023-03-28T03:41:46.701Z,91.27
2023-03-28T03:44:16.389Z,90.13
2023-03-28T03:46:44.697Z,89.20
2023-03-28T03:49:13.098Z,87.20
2023-03-28T03:51:41.194Z,88.00
2023-03-28T03:54:09.452Z,86.03
2023-03-28T03:56:37.841Z,86.23
2023-03-28T03:59:06.493Z,87.17
2023-03-28T04:01:36.383Z,85.20
2023-03-28T04:04:04.500Z,84.60
2023-03-28T04:06:32.768Z,82.90
2023-03-28T04:09:01.041Z,82.10
2023-03-28T04:11:29.164Z,80.67
2023-03-28T04:13:57.366Z,81.57
2023-03-28T04:16:26.122Z,79.57
2023-03-28T04:18:55.691Z,77.60
2023-03-28T04:21:27.613Z,75.77
2023-03-28T04:23:56.809Z,77.30
2023-03-28T04:26:27.063Z,77.13
2023-03-28T04:28:56.136Z,78.77
2023-03-28T04:31:29.706Z,78.60
2023-03-28T04:34:00.444Z,77.83
2023-03-28T04:36:29.324Z,76.90
2023-03-28T04:38:58.415Z,78.30
2023-03-28T04:41:26.728Z,78.40
2023-03-28T04:43:55.060Z,78.60
2023-03-28T04:46:23.612Z,79.17
2023-03-28T04:48:56.232Z,78.03
2023-03-28T04:51:28.542Z,78.33
2023-03-28T04:53:56.788Z,77.13
2023-03-28T04:56:24.941Z,77.43
2023-03-28T04:58:53.065Z,81.73
2023-03-28T05:01:22.642Z,80.67
2023-03-28T05:03:50.891Z,76.17
2023-03-28T05:06:19.182Z,79.50
2023-03-28T05:08:48.867Z,76.57
2023-03-28T05:11:16.951Z,79.27
2023-03-28T05:13:45.259Z,77.90
2023-03-28T05:16:13.533Z,77.60
2023-03-28T05:18:41.677Z,77.03
2023-03-28T05:21:09.877Z,75.00
2023-03-28T05:23:38.113Z,73.27
2023-03-28T05:26:08.200Z,73.70
2023-03-28T05:28:36.735Z,72.60
2023-03-28T05:31:07.510Z,74.77
2023-03-28T05:33:37.862Z,76.57
2023-03-28T05:36:06.616Z,78.40
2023-03-28T05:38:34.692Z,78.47
2023-03-28T05:41:03.343Z,79.30
2023-03-28T05:43:33.106Z,80.30
2023-03-28T05:46:01.578Z,80.17
2023-03-28T05:48:29.921Z,80.67
2023-03-28T05:50:58.572Z,80.93
2023-03-28T05:53:27.004Z,81.43
2023-03-28T05:55:55.162Z,82.50
2023-03-28T05:58:23.362Z,80.03
2023-03-28T06:00:53.092Z,85.20
2023-03-28T06:03:22.260Z,86.33
2023-03-28T06:05:50.676Z,88.27
2023-03-28T06:08:18.792Z,87.00
2023-03-28T06:10:48.519Z,88.50
2023-03-28T06:13:16.708Z,90.67
2023-03-28T06:15:44.898Z,92.10
2023-03-28T06:18:14.443Z,94.27
2023-03-28T06:20:42.636Z,93.13
2023-03-28T06:23:11.104Z,97.47
2023-03-28T06:25:39.383Z,100.77
2023-03-28T06:28:07.626Z,99.30
2023-03-28T06:30:35.756Z,99.00
2023-03-28T06:33:03.999Z,101.80
2023-03-28T06:35:34.074Z,103.07
2023-03-28T06:38:02.640Z,109.03
2023-03-28T06:40:31.148Z,107.40
2023-03-28T06:42:59.557Z,108.47
2023-03-28T06:45:27.776Z,108.37
2023-03-28T06:47:56.201Z,106.87
2023-03-28T06:50:24.362Z,107.60
2023-03-28T06:52:53.898Z,108.00
2023-03-28T06:55:22.759Z,103.40
2023-03-28T06:57:50.927Z,103.33
2023-03-28T07:00:19.841Z,104.27
2023-03-28T07:02:48.006Z,107.73
2023-03-28T07:05:16.287Z,102.87
2023-03-28T07:07:44.354Z,99.87
2023-03-28T07:10:13.798Z,100.13
2023-03-28T07:12:41.851Z,98.20
2023-03-28T07:15:11.143Z,102.37
2023-03-28T07:17:39.268Z,104.60
2023-03-28T07:20:08.218Z,103.77
2023-03-28T07:22:36.591Z,106.13
2023-03-28T07:25:05.015Z,103.87
2023-03-28T07:27:34.514Z,106.13
2023-03-28T07:30:02.700Z,102.50
2023-03-28T07:32:35.750Z,101.67
2023-03-28T07:35:11.351Z,101.70
2023-03-28T07:37:39.603Z,96.27
2023-03-28T07:40:09.315Z,93.50
2023-03-28T07:42:39.135Z,96.20
2023-03-28T07:45:08.438Z,90.97
2023-03-28T07:47:36.575Z,90.30
2023-03-28T07:50:05.226Z,85.40
2023-03-28T07:52:33.580Z,86.87
2023-03-28T07:55:02.073Z,86.43
2023-03-28T07:57:30.288Z,87.30
2023-03-28T07:59:59.733Z,87.37
2023-03-28T08:02:28.102Z,90.17
2023-03-28T08:04:56.419Z,89.90
2023-03-28T08:07:25.676Z,78.10
2023-03-28T08:09:54.828Z,75.90
2023-03-28T08:12:24.497Z,72.10
2023-03-28T08:14:53.121Z,68.70
2023-03-28T08:17:23.189Z,67.47
2023-03-28T08:19:51.534Z,64.80
2023-03-28T08:22:19.880Z,58.43
2023-03-28T08:24:48.045Z,58.40
2023-03-28T08:27:16.273Z,57.50
2023-03-28T08:29:44.437Z,57.30
2023-03-28T08:32:12.690Z,60.37
2023-03-28T08:34:42.193Z,56.07
2023-03-28T08:37:10.511Z,45.47
2023-03-28T08:39:41.551Z,43.43
2023-03-28T08:42:26.507Z,38.57
2023-03-28T08:45:21.074Z,33.80
2023-03-28T08:48:01.577Z,33.27
2023-03-28T08:50:34.579Z,26.50
2023-03-28T08:53:04.981Z,28.20
2023-03-28T08:55:38.293Z,27.97
2023-03-28T08:58:07.099Z,24.93
2023-03-28T09:00:37.827Z,24.30
2023-03-28T09:03:13.375Z,23.43
2023-03-28T09:05:48.136Z,22.73
2023-03-28T09:08:29.067Z,21.80
2023-03-28T09:11:04.220Z,21.73
2023-03-28T09:13:43.316Z,21.37
2023-03-28T09:16:26.638Z,21.50
2023-03-28T09:19:11.642Z,21.00
2023-03-28T09:22:04.956Z,20.90
2023-03-28T09:24:52.266Z,21.20
2023-03-28T09:27:25.616Z,20.30
2023-03-28T09:30:01.289Z,20.10
2023-03-28T09:32:33.175Z,19.70
2023-03-28T09:35:02.079Z,20.13
2023-03-28T09:37:36.284Z,19.83
2023-03-28T09:40:17.883Z,19.53
2023-03-28T09:42:55.259Z,20.23
2023-03-28T09:45:35.063Z,19.40
2023-03-28T09:48:03.724Z,19.77
2023-03-28T09:50:32.313Z,19.97
2023-03-28T09:53:01.909Z,20.40
2023-03-28T09:55:32.146Z,20.23
2023-03-28T09:58:01.932Z,19.77
2023-03-28T10:00:30.704Z,19.70
2023-03-28T10:02:58.993Z,19.33
2023-03-28T10:05:36.732Z,19.13
2023-03-28T10:08:19.857Z,19.17
2023-03-28T10:11:00.861Z,19.40
2023-03-28T10:13:29.681Z,19.50
2023-03-28T10:15:59.648Z,19.50
2023-03-28T10:18:31.196Z,19.40
2023-03-28T10:21:14.172Z,19.20
2023-03-28T10:23:48.979Z,19.10
2023-03-28T10:26:23.408Z,19.47
2023-03-28T10:28:54.470Z,19.53
2023-03-28T10:31:29.378Z,19.00
2023-03-28T10:33:59.102Z,18.73
2023-03-28T10:36:31.463Z,19.03
2023-03-28T10:39:13.635Z,19.03
2023-03-28T10:41:53.890Z,19.40
2023-03-28T10:44:28.800Z,19.47
2023-03-28T10:46:59.310Z,19.47
2023-03-28T10:49:29.090Z,19.20
2023-03-28T10:51:57.582Z,19.03
2023-03-28T10:54:47.463Z,19.07
2023-03-28T10:57:22.186Z,19.07
2023-03-28T11:00:00.545Z,21.10
2023-03-28T11:03:00.644Z,19.53
2023-03-28T11:05:38.995Z,21.43
2023-03-28T11:08:25.772Z,19.53
2023-03-28T11:11:02.904Z,19.40
2023-03-28T11:13:37.251Z,19.40
2023-03-28T11:16:12.334Z,19.63
2023-03-28T11:18:59.853Z,19.50
2023-03-28T11:21:33.223Z,19.37
2023-03-28T11:24:11.333Z,19.50
2023-03-28T11:26:51.430Z,19.00
2023-03-28T11:29:42.043Z,19.20
2023-03-28T11:32:17.445Z,19.80
2023-03-28T11:34:50.266Z,19.50
2023-03-28T11:37:22.699Z,18.77
2023-03-28T11:39:55.641Z,19.20
2023-03-28T11:42:30.831Z,18.60
2023-03-28T11:45:08.217Z,19.10
2023-03-28T11:47:42.602Z,18.80
2023-03-28T11:50:18.304Z,19.07
2023-03-28T11:52:50.770Z,19.80
2023-03-28T11:55:21.677Z,19.03
2023-03-28T11:57:57.974Z,19.07
2023-03-28T12:00:34.138Z,19.23
2023-03-28T12:03:15.081Z,18.90
2023-03-28T12:05:49.860Z,18.80
2023-03-28T12:08:24.522Z,19.10
2023-03-28T12:10:58.639Z,18.70
2023-03-28T12:13:39.448Z,18.90
2023-03-28T12:16:15.970Z,18.23
2023-03-28T12:18:48.133Z,18.57
2023-03-28T12:21:23.097Z,18.90
2023-03-28T12:24:02.058Z,18.80
2023-03-28T12:26:39.681Z,18.53
2023-03-28T12:29:16.217Z,18.77
2023-03-28T12:31:51.796Z,18.63
2023-03-28T12:34:31.432Z,18.37
2023-03-28T12:37:11.959Z,18.33
2023-03-28T12:39:45.647Z,18.37
2023-03-28T12:42:15.855Z,19.00
2023-03-28T12:44:52.444Z,19.50
2023-03-28T12:47:25.831Z,18.53
2023-03-28T12:49:57.681Z,19.40
2023-03-28T12:52:32.010Z,18.70
2023-03-28T12:55:02.739Z,18.90
2023-03-28T12:57:46.014Z,19.10
2023-03-28T13:00:26.223Z,18.60
2023-03-28T13:03:08.352Z,18.63
2023-03-28T13:05:48.267Z,18.53
2023-03-28T13:08:24.205Z,18.53
2023-03-28T13:11:08.777Z,19.00
2023-03-28T13:13:46.808Z,18.80
2023-03-28T13:16:24.100Z,19.00
2023-03-28T13:19:07.627Z,19.30
2023-03-28T13:21:47.807Z,19.60
2023-03-28T13:24:31.485Z,19.10
2023-03-28T13:27:01.587Z,19.30
2023-03-28T13:29:46.513Z,19.30
2023-03-28T13:32:18.352Z,18.70
2023-03-28T13:34:50.589Z,18.30
2023-03-28T13:37:23.114Z,18.60
2023-03-28T13:39:53.648Z,18.93
2023-03-28T13:42:30.769Z,18.83
2023-03-28T13:45:02.866Z,23.43
2023-03-28T13:47:38.644Z,19.03
2023-03-28T13:50:17.218Z,18.97
2023-03-28T13:52:45.514Z,18.53
2023-03-28T13:55:22.034Z,18.60
2023-03-28T13:57:51.394Z,61.90
2023-03-28T14:00:24.074Z,18.17
2023-03-28T14:02:55.133Z,19.87
2023-03-28T14:05:26.323Z,18.77
2023-03-28T14:07:56.814Z,18.67
2023-03-28T14:10:31.227Z,18.67
2023-03-28T14:13:02.591Z,18.53
2023-03-28T14:15:37.484Z,19.30
2023-03-28T14:18:09.244Z,18.17
2023-03-28T14:20:39.781Z,18.30
2023-03-28T14:23:08.962Z,18.43
2023-03-28T14:25:37.268Z,17.93
2023-03-28T14:28:09.602Z,21.47
2023-03-28T14:30:42.750Z,18.20
2023-03-28T14:33:21.992Z,18.00
2023-03-28T14:36:01.782Z,18.50
2023-03-28T14:38:35.248Z,18.13
2023-03-28T14:41:14.542Z,17.80
2023-03-28T14:43:42.964Z,17.60
2023-03-28T14:46:12.327Z,17.97
2023-03-28T14:48:43.493Z,17.97
2023-03-28T14:51:14.577Z,17.73
2023-03-28T14:53:46.500Z,18.20
2023-03-28T14:56:19.284Z,17.90
2023-03-28T14:58:49.987Z,17.50
2023-03-28T15:01:23.194Z,17.77
2023-03-28T15:03:58.959Z,17.80
2023-03-28T15:06:29.308Z,18.40
2023-03-28T15:08:59.693Z,18.40
2023-03-28T15:11:32.741Z,18.50
2023-03-28T15:14:04.380Z,18.30
2023-03-28T15:16:36.984Z,18.50
2023-03-28T15:19:09.216Z,18.37
2023-03-28T15:21:39.528Z,17.90
2023-03-28T15:24:12.977Z,18.43
2023-03-28T15:26:44.722Z,18.13
2023-03-28T15:29:17.546Z,18.40
2023-03-28T15:31:46.538Z,18.33
2023-03-28T15:34:22.725Z,17.90
2023-03-28T15:36:54.326Z,18.43
2023-03-28T15:39:25.749Z,18.40
2023-03-28T15:41:56.159Z,17.40
2023-03-28T15:44:29.067Z,18.10
2023-03-28T15:47:01.721Z,17.90
2023-03-28T15:49:36.959Z,18.30
2023-03-28T15:52:09.341Z,17.97
2023-03-28T15:54:42.926Z,17.60
2023-03-28T15:57:12.508Z,18.10
2023-03-28T15:59:45.178Z,18.40
2023-03-28T16:02:32.956Z,19.37
2023-03-28T16:05:03.933Z,18.60
2023-03-28T16:07:38.593Z,20.33
2023-03-28T16:10:07.482Z,17.80
2023-03-28T16:12:35.720Z,18.27
2023-03-28T16:15:04.976Z,18.50
2023-03-28T16:17:33.727Z,18.80
2023-03-28T16:20:03.881Z,18.10
2023-03-28T16:22:32.008Z,18.20
2023-03-28T16:25:00.128Z,17.90
2023-03-28T16:27:28.227Z,17.67
2023-03-28T16:29:56.798Z,18.00
2023-03-28T16:32:25.127Z,17.93
2023-03-28T16:34:53.475Z,18.57
2023-03-28T16:37:22.938Z,17.10
2023-03-28T16:39:51.480Z,17.33
2023-03-28T16:42:20.868Z,16.63
2023-03-28T16:44:49.079Z,17.30
2023-03-28T16:47:17.222Z,17.60
2023-03-28T16:49:45.336Z,17.37
2023-03-28T16:52:13.325Z,17.37
2023-03-28T16:54:44.173Z,17.60
2023-03-28T16:57:12.330Z,17.70
2023-03-28T16:59:40.487Z,17.20
2023-03-28T17:02:09.166Z,17.87
2023-03-28T17:04:37.454Z,17.80
2023-03-28T17:07:06.104Z,18.30
2023-03-28T17:09:34.691Z,18.00
2023-03-28T17:12:04.306Z,17.90
2023-03-28T17:14:32.420Z,18.50
2023-03-28T17:17:00.766Z,18.43
2023-03-28T17:19:29.122Z,18.33
2023-03-28T17:21:57.864Z,18.30
2023-03-28T17:24:26.049Z,18.40
2023-03-28T17:26:54.360Z,18.67
2023-03-28T17:29:24.095Z,19.00
2023-03-28T17:31:52.613Z,18.60
2023-03-28T17:34:21.463Z,17.90
2023-03-28T17:36:51.059Z,17.87
2023-03-28T17:39:19.230Z,17.60
2023-03-28T17:41:47.296Z,18.07
2023-03-28T17:44:15.465Z,18.30
2023-03-28T17:46:46.827Z,17.77
2023-03-28T17:49:16.986Z,17.60
2023-03-28T17:51:46.249Z,17.80
2023-03-28T17:54:14.617Z,24.63
2023-03-28T17:56:43.240Z,20.10
2023-03-28T17:59:11.900Z,20.83
2023-03-28T18:01:41.052Z,21.60
2023-03-28T18:04:10.555Z,18.97
2023-03-28T18:06:38.728Z,21.10
2023-03-28T18:09:06.967Z,21.27
2023-03-28T18:11:39.168Z,20.77
2023-03-28T18:14:08.526Z,21.50
2023-03-28T18:16:38.686Z,19.47
2023-03-28T18:19:09.052Z,42.53
2023-03-28T18:21:38.517Z,20.57
2023-03-28T18:24:07.980Z,21.20
2023-03-28T18:26:36.109Z,21.23
2023-03-28T18:29:04.853Z,21.77
2023-03-28T18:31:33.043Z,31.07
2023-03-28T18:34:05.058Z,21.70
2023-03-28T18:36:36.953Z,21.70
2023-03-28T18:39:07.049Z,22.37
2023-03-28T18:41:35.388Z,21.60
2023-03-28T18:44:03.593Z,21.07
2023-03-28T18:46:31.735Z,20.67
2023-03-28T18:49:00.238Z,21.60
2023-03-28T18:51:28.739Z,21.30
2023-03-28T18:53:57.235Z,22.47
2023-03-28T18:56:26.737Z,21.47
2023-03-28T18:58:54.800Z,22.43
2023-03-28T19:01:23.764Z,23.10
2023-03-28T19:03:52.335Z,23.07
2023-03-28T19:06:21.106Z,23.17
2023-03-28T19:08:49.786Z,24.20
2023-03-28T19:11:19.689Z,25.03
2023-03-28T19:13:50.389Z,25.27
2023-03-28T19:16:19.701Z,26.10
2023-03-28T19:18:48.675Z,27.27
2023-03-28T19:21:17.709Z,27.03
2023-03-28T19:23:48.622Z,28.30
2023-03-28T19:26:18.189Z,29.03
2023-03-28T19:28:46.887Z,28.70
2023-03-28T19:31:17.107Z,27.20
2023-03-28T19:33:46.283Z,28.77
2023-03-28T19:36:14.447Z,30.57
2023-03-28T19:38:42.718Z,29.03
2023-03-28T19:41:17.398Z,30.63
2023-03-28T19:43:46.228Z,29.73
2023-03-28T19:46:19.526Z,29.00
2023-03-28T19:48:47.907Z,29.20
2023-03-28T19:51:17.182Z,30.47
2023-03-28T19:53:45.433Z,31.30
2023-03-28T19:56:14.111Z,29.50
2023-03-28T19:58:42.422Z,30.30
2023-03-28T20:01:10.499Z,29.60
2023-03-28T20:03:40.805Z,28.90
2023-03-28T20:06:12.317Z,28.37
2023-03-28T20:08:40.985Z,28.53
2023-03-28T20:11:09.771Z,25.97
2023-03-28T20:13:37.978Z,26.97
2023-03-28T20:16:07.690Z,26.87
2023-03-28T20:18:37.047Z,27.70
2023-03-28T20:21:09.348Z,27.73
2023-03-28T20:23:37.956Z,28.90
2023-03-28T20:26:18.561Z,29.40
2023-03-28T20:28:49.594Z,31.10
2023-03-28T20:31:18.587Z,30.17
2023-03-28T20:33:46.951Z,30.70
2023-03-28T20:36:16.513Z,30.33
2023-03-28T20:38:44.741Z,31.30
2023-03-28T20:41:13.660Z,31.67
2023-03-28T20:43:46.418Z,31.77
2023-03-28T20:46:18.311Z,33.07
2023-03-28T20:48:48.022Z,33.17
2023-03-28T20:51:18.721Z,35.43
2023-03-28T20:53:49.456Z,34.60
2023-03-28T20:56:18.886Z,35.50
2023-03-28T20:58:47.706Z,34.40
2023-03-28T21:01:17.731Z,35.47
2023-03-28T21:03:49.826Z,35.13
2023-03-28T21:06:22.327Z,35.00
2023-03-28T21:08:51.598Z,34.40
2023-03-28T21:11:22.196Z,34.90
2023-03-28T21:13:50.778Z,33.93
2023-03-28T21:16:20.988Z,34.47
2023-03-28T21:18:49.462Z,32.80
2023-03-28T21:21:20.669Z,35.63
2023-03-28T21:23:49.372Z,34.70
2023-03-28T21:26:18.890Z,35.93
2023-03-28T21:28:47.468Z,35.50
2023-03-28T21:31:18.286Z,35.97
2023-03-28T21:33:47.443Z,36.67
2023-03-28T21:36:17.862Z,34.70
2023-03-28T21:38:48.711Z,36.63
2023-03-28T21:41:18.077Z,35.33
2023-03-28T21:43:47.648Z,38.50
2023-03-28T21:46:18.322Z,38.50
2023-03-28T21:48:47.853Z,37.63
2023-03-28T21:51:17.383Z,40.90
2023-03-28T21:53:47.110Z,41.90
2023-03-28T21:56:16.726Z,39.90
2023-03-28T21:58:44.977Z,36.03
2023-03-28T22:01:14.558Z,37.67
2023-03-28T22:03:42.824Z,37.30
2023-03-28T22:06:11.464Z,37.07
2023-03-28T22:08:39.606Z,36.63
2023-03-28T22:11:14.711Z,36.50
2023-03-28T22:13:44.872Z,37.63
2023-03-28T22:16:14.171Z,39.00
2023-03-28T22:18:50.236Z,37.80
2023-03-28T22:21:18.560Z,38.37
2023-03-28T22:23:47.791Z,36.30
2023-03-28T22:26:17.925Z,36.37
2023-03-28T22:28:46.147Z,36.60
2023-03-28T22:31:16.737Z,35.13
2023-03-28T22:33:45.088Z,35.57
2023-03-28T22:36:13.624Z,36.50
2023-03-28T22:38:41.940Z,35.33
2023-03-28T22:41:10.107Z,34.67
2023-03-28T22:43:42.863Z,34.40
2023-03-28T22:46:16.393Z,33.93
2023-03-28T22:48:44.724Z,34.20
2023-03-28T22:51:13.960Z,33.13
2023-03-28T22:53:42.122Z,33.33
2023-03-28T22:56:12.327Z,32.47
2023-03-28T22:58:41.730Z,33.07
2023-03-28T23:01:10.045Z,33.70
2023-03-28T23:03:38.309Z,32.77
2023-03-28T23:06:07.265Z,33.50
2023-03-28T23:08:35.854Z,33.50
2023-03-28T23:11:04.243Z,35.07
2023-03-28T23:13:32.566Z,35.07
2023-03-28T23:16:02.728Z,34.70
2023-03-28T23:18:31.163Z,34.30
2023-03-28T23:20:59.490Z,35.33
2023-03-28T23:23:28.217Z,34.93
2023-03-28T23:25:56.311Z,35.03
2023-03-28T23:28:24.451Z,35.00
2023-03-28T23:30:52.548Z,35.03
2023-03-28T23:33:22.005Z,34.70
2023-03-28T23:35:50.437Z,35.30
2023-03-28T23:38:18.565Z,34.73
2023-03-28T23:40:46.820Z,35.70
2023-03-28T23:43:15.504Z,37.27
2023-03-28T23:45:44.809Z,37.33
2023-03-28T23:48:13.283Z,36.30
2023-03-28T23:50:43.112Z,35.83
2023-03-28T23:53:11.629Z,33.70
2023-03-28T23:55:39.969Z,35.20
2023-03-28T23:58:08.226Z,36.40
